DW9313 Weather Reports


Display with metric or nautical units.
time (UTC)temp
F
wind
direction
speed
MPH
gust
MPH
rain 1hr
in
rain 24hr
in
rain mn
in
humidity
%
barometer
mb
20180522135733 64 6 4.0 8.0 0.00 0.59 0.00 66 1021.8
20180522135233 64 337 6.0 12.0 0.00 0.59 0.00 65 1021.7
20180522134734 63 297 6.0 12.0 0.00 0.59 0.00 65 1021.7
20180522134233 63 340 5.0 9.0 0.00 0.59 0.00 66 1021.7
20180522133734 63 327 6.0 12.0 0.00 0.59 0.00 65 1021.7
20180522133234 63 349 6.0 12.0 0.00 0.59 0.00 65 1021.7
20180522132734 63 339 5.0 8.0 0.00 0.59 0.00 66 1021.7
20180522132234 62 330 5.0 9.0 0.00 0.59 0.00 67 1021.7
20180522131734 62 331 5.0 13.0 0.00 0.59 0.00 65 1021.7
20180522131234 62 340 6.0 12.0 0.00 0.59 0.00 66 1021.7
20180522130733 63 345 6.0 13.0 0.00 0.59 0.00 66 1021.8
20180522130234 62 333 2.0 13.0 0.00 0.59 0.00 67 1021.7
20180522125734 62 343 5.0 12.0 0.00 0.59 0.00 68 1021.8
20180522125234 61 312 6.0 12.0 0.00 0.59 0.00 67 1021.8
20180522124734 61 345 5.0 12.0 0.00 0.59 0.00 67 1021.8
20180522124234 61 270 5.0 12.0 0.00 0.59 0.00 68 1021.8
20180522123734 61 330 5.0 9.0 0.00 0.59 0.00 68 1021.8
20180522123235 61 341 5.0 12.0 0.00 0.59 0.00 67 1021.9
20180522122734 61 341 3.0 8.0 0.00 0.59 0.00 67 1021.8
20180522122234 61 337 2.0 8.0 0.00 0.59 0.00 68 1021.8
20180522121734 60 333 6.0 9.0 0.00 0.59 0.00 69 1021.8
20180522121234 60 329 5.0 12.0 0.00 0.59 0.00 69 1021.8
20180522120735 60 342 4.0 12.0 0.00 0.59 0.00 69 1021.8
20180522120234 60 349 6.0 14.0 0.00 0.59 0.00 69 1021.8
20180522115735 59 306 6.0 9.0 0.00 0.59 0.00 70 1021.7
20180522115234 59 339 6.0 12.0 0.00 0.59 0.00 69 1021.7
20180522114735 59 19 5.0 14.0 0.00 0.59 0.00 70 1021.7
20180522114234 59 0 5.0 8.0 0.00 0.59 0.00 70 1021.7
20180522113735 59 338 5.0 9.0 0.00 0.59 0.00 71 1021.8
20180522113235 58 308 6.0 13.0 0.00 0.59 0.00 71 1021.7
20180522112735 58 339 5.0 14.0 0.00 0.59 0.00 71 1021.7
20180522112236 58 315 6.0 12.0 0.00 0.59 0.00 70 1021.7
20180522111735 58 326 6.0 12.0 0.00 0.59 0.00 70 1021.7
20180522111235 58 337 5.0 9.0 0.00 0.59 0.00 71 1021.7
20180522110735 57 335 5.0 13.0 0.00 0.59 0.00 72 1021.6
20180522110235 57 332 6.0 12.0 0.00 0.59 0.00 71 1021.6
20180522105735 57 333 10.0 14.0 0.00 0.59 0.00 70 1021.6
20180522105235 57 345 3.0 12.0 0.00 0.59 0.00 72 1021.6
20180522104735 57 329 6.0 14.0 0.00 0.59 0.00 72 1021.5
20180522104235 57 341 6.0 12.0 0.00 0.59 0.00 71 1021.5
20180522103735 57 350 6.0 14.0 0.00 0.59 0.00 71 1021.4
20180522103235 57 354 3.0 8.0 0.00 0.59 0.00 73 1021.5
20180522102735 56 342 8.0 14.0 0.00 0.59 0.00 72 1021.5
20180522102235 56 319 6.0 12.0 0.00 0.59 0.00 73 1021.5
20180522101735 56 344 4.0 12.0 0.00 0.59 0.00 74 1021.4
20180522101235 55 332 4.0 12.0 0.00 0.59 0.00 74 1021.4
20180522100735 55 339 6.0 14.0 0.00 0.59 0.00 74 1021.4
20180522100235 55 332 3.0 8.0 0.00 0.59 0.00 74 1021.4
20180522095736 55 340 6.0 12.0 0.00 0.59 0.00 72 1021.5
20180522095236 55 289 4.0 12.0 0.00 0.59 0.00 75 1021.6
20180522094735 55 336 7.0 13.0 0.00 0.59 0.00 74 1021.6
20180522094235 55 338 6.0 13.0 0.00 0.59 0.00 74 1021.6
20180522093736 55 339 5.0 13.0 0.00 0.59 0.00 74 1021.7
20180522093236 54 346 4.0 12.0 0.00 0.59 0.00 75 1021.6
20180522092736 54 354 4.0 9.0 0.00 0.59 0.00 76 1021.5
20180522092236 53 351 8.0 13.0 0.00 0.59 0.00 76 1021.5
20180522091736 53 338 7.0 13.0 0.00 0.59 0.00 77 1021.5
20180522091236 52 332 9.0 14.0 0.00 0.59 0.00 76 1021.3
20180522090736 52 314 6.0 13.0 0.00 0.59 0.00 77 1021.3
20180522090236 52 339 7.0 13.0 0.00 0.59 0.00 77 1021.3
20180522085736 52 329 7.0 12.0 0.00 0.59 0.00 78 1021.4
20180522085236 51 339 7.0 13.0 0.00 0.59 0.00 78 1021.4
20180522084736 51 330 6.0 14.0 0.00 0.59 0.00 79 1021.4
20180522084236 50 338 6.0 15.0 0.00 0.59 0.00 80 1021.5
20180522083739 50 337 9.0 13.0 0.00 0.59 0.00 79 1021.6
20180522083236 50 333 10.0 16.0 0.00 0.59 0.00 79 1021.6
20180522082737 50 334 10.0 15.0 0.00 0.59 0.00 79 1021.6
20180522082240 50 342 10.0 16.0 0.00 0.59 0.00 79 1021.6
20180522081737 50 340 7.0 12.0 0.00 0.59 0.00 79 1021.7
20180522081236 50 354 7.0 13.0 0.00 0.59 0.00 80 1021.7
20180522080736 50 340 5.0 13.0 0.00 0.59 0.00 80 1021.8
20180522080237 49 331 7.0 13.0 0.00 0.59 0.00 80 1021.8
20180522075737 49 329 6.0 12.0 0.00 0.59 0.00 81 1021.8
20180522075237 49 355 7.0 13.0 0.00 0.59 0.00 81 1021.7
20180522074737 49 341 10.0 16.0 0.00 0.59 0.00 80 1021.8
20180522074237 48 330 7.0 13.0 0.00 0.59 0.00 80 1021.8
20180522073737 48 357 6.0 13.0 0.00 0.59 0.00 81 1021.8
20180522073237 48 344 5.0 12.0 0.00 0.59 0.00 81 1021.8
20180522072737 48 343 7.0 14.0 0.00 0.59 0.00 81 1021.7
20180522072237 48 337 6.0 14.0 0.00 0.59 0.00 81 1021.8
20180522071737 48 337 6.0 13.0 0.00 0.59 0.00 81 1021.8
20180522071237 48 335 5.0 13.0 0.00 0.59 0.00 81 1021.9
20180522070737 47 342 6.0 14.0 0.00 0.59 0.00 81 1021.9
20180522070237 47 321 6.0 12.0 0.00 0.60 0.00 82 1021.9
20180522065736 47 341 5.0 12.0 0.00 0.60 0.00 82 1021.9
20180522065237 47 355 6.0 14.0 0.00 0.60 0.00 82 1022.0
20180522064737 47 337 6.0 13.0 0.00 0.60 0.00 82 1022.0
20180522064237 47 349 6.0 14.0 0.00 0.60 0.00 82 1021.9
20180522063737 47 335 6.0 12.0 0.00 0.60 0.00 82 1021.9
20180522063237 47 333 8.0 14.0 0.00 0.60 0.00 82 1021.9
20180522062737 47 341 6.0 13.0 0.00 0.60 0.00 83 1021.9
20180522062237 47 335 8.0 14.0 0.00 0.60 0.00 83 1021.9
20180522061738 47 334 8.0 14.0 0.00 0.60 0.00 83 1021.9
20180522061237 47 342 9.0 18.0 0.00 0.60 0.00 83 1021.9
20180522060738 46 343 6.0 14.0 0.00 0.61 0.00 83 1021.9
20180522060237 46 333 7.0 14.0 0.00 0.61 0.00 83 1022.0
20180522055737 46 332 5.0 14.0 0.00 0.61 0.00 83 1022.0
20180522055238 46 332 7.0 14.0 0.00 0.61 0.00 83 1022.0
20180522054738 46 342 6.0 14.0 0.00 0.61 0.00 83 1021.9
20180522054238 46 339 6.0 14.0 0.00 0.61 0.00 83 1021.9
20180522053738 46 335 6.0 15.0 0.00 0.61 0.00 83 1021.8
20180522053238 46 337 6.0 13.0 0.00 0.61 0.00 84 1021.8
20180522052738 46 340 6.0 13.0 0.00 0.61 0.00 84 1021.8
20180522052237 46 331 6.0 13.0 0.00 0.61 0.00 84 1021.7
20180522051738 46 336 7.0 12.0 0.00 0.61 0.00 84 1021.6
20180522051238 46 334 6.0 13.0 0.00 0.61 0.00 84 1021.5
20180522050738 46 331 6.0 12.0 0.00 0.61 0.00 84 1021.5
20180522050238 46 350 6.0 12.0 0.00 0.61 0.00 84 1021.5
20180522045737 46 334 5.0 12.0 0.00 0.61 0.00 84 1021.5
20180522045238 46 342 5.0 8.0 0.00 0.61 0.00 84 1021.4
20180522044738 46 341 5.0 13.0 0.00 0.61 0.00 84 1021.2
20180522044238 46 335 4.0 12.0 0.00 0.61 0.00 83 1021.2
20180522043738 46 332 6.0 12.0 0.00 0.61 0.00 83 1021.1
20180522043238 46 338 6.0 12.0 0.00 0.61 0.00 83 1021.0
20180522042738 46 330 7.0 12.0 0.00 0.61 0.00 83 1021.0
20180522042238 46 340 6.0 13.0 0.00 0.61 0.00 83 1020.9
20180522041739 46 347 6.0 12.0 0.00 0.61 0.00 83 1021.0
20180522041239 46 337 6.0 14.0 0.00 0.61 0.00 83 1020.9
20180522040738 46 336 6.0 14.0 0.00 0.61 0.00 83 1021.0
20180522040239 46 338 6.0 9.0 0.00 0.61 0.00 83 1021.0
20180522035738 46 342 5.0 12.0 0.00 0.61 0.00 83 1021.0
20180522035239 47 338 5.0 12.0 0.00 0.61 0.00 83 1020.9
20180522034739 47 341 7.0 12.0 0.00 0.61 0.00 83 1020.9
20180522034239 47 337 8.0 14.0 0.00 0.61 0.00 83 1020.8
20180522033739 47 335 7.0 14.0 0.00 0.61 0.00 83 1020.9
20180522033239 47 335 7.0 12.0 0.00 0.61 0.00 83 1020.9
20180522032739 47 328 6.0 12.0 0.00 0.61 0.00 82 1021.0
20180522032238 47 339 5.0 12.0 0.00 0.61 0.00 82 1021.0
20180522031739 47 344 6.0 12.0 0.00 0.61 0.00 82 1021.0
20180522031239 48 331 6.0 9.0 0.00 0.61 0.00 82 1020.9
20180522030739 48 331 6.0 12.0 0.00 0.61 0.00 82 1021.0
20180522030238 48 340 6.0 9.0 0.00 0.61 0.00 82 1021.0
20180522025739 48 348 5.0 13.0 0.00 0.61 0.00 82 1021.1
20180522025239 48 339 6.0 16.0 0.00 0.61 0.00 82 1021.1
20180522024739 48 334 4.0 9.0 0.00 0.61 0.00 82 1021.1
20180522024239 48 344 6.0 13.0 0.00 0.61 0.00 82 1021.2
20180522023740 48 340 7.0 12.0 0.00 0.61 0.00 82 1021.1
20180522023239 48 332 8.0 14.0 0.00 0.61 0.00 81 1021.1
20180522022739 49 344 6.0 14.0 0.00 0.61 0.00 81 1021.2
20180522022239 49 345 6.0 12.0 0.00 0.61 0.00 81 1021.2
20180522021739 49 331 5.0 13.0 0.00 0.61 0.00 81 1021.2
20180522021239 49 332 7.0 14.0 0.00 0.61 0.00 81 1021.2
20180522020739 49 336 5.0 8.0 0.00 0.61 0.00 82 1021.3
20180522020240 49 347 6.0 12.0 0.00 0.61 0.00 82 1021.3
20180522015740 49 349 5.0 12.0 0.00 0.61 0.00 82 1021.3
20180522015239 49 342 5.0 12.0 0.00 0.61 0.00 82 1021.2
20180522014740 49 352 5.0 12.0 0.00 0.61 0.00 81 1021.2
20180522014239 49 341 3.0 12.0 0.00 0.61 0.00 81 1021.3
20180522013740 49 338 5.0 9.0 0.00 0.61 0.00 80 1021.4
20180522013240 49 311 2.0 6.0 0.00 0.61 0.00 80 1021.3
20180522012739 49 329 5.0 12.0 0.00 0.61 0.00 80 1021.6
20180522012239 50 344 2.0 12.0 0.00 0.61 0.00 81 1021.5
20180522011740 50 345 3.0 14.0 0.00 0.61 0.00 82 1021.6
20180522011240 50 344 6.0 14.0 0.00 0.61 0.00 83 1021.6
20180522010739 50 350 6.0 9.0 0.00 0.61 0.00 83 1021.6
20180522010240 50 336 4.0 9.0 0.00 0.61 0.00 83 1021.7
20180522005740 50 345 6.0 13.0 0.00 0.61 0.00 83 1021.7
20180522005240 50 345 6.0 15.0 0.00 0.61 0.00 83 1021.5
20180522004740 50 344 8.0 15.0 0.00 0.61 0.00 84 1021.4
20180522004240 50 344 4.0 13.0 0.00 0.61 0.00 84 1021.4
20180522003740 50 355 7.0 14.0 0.00 0.61 0.00 84 1021.4
20180522003240 50 342 5.0 12.0 0.00 0.61 0.00 84 1021.5
20180522002740 50 340 6.0 12.0 0.00 0.61 0.00 84 1021.4
20180522002240 50 356 5.0 9.0 0.00 0.61 0.00 84 1021.3
20180522001740 50 342 5.0 12.0 0.00 0.61 0.00 83 1021.3
20180522001241 50 348 5.0 9.0 0.00 0.61 0.00 83 1021.4
20180522000740 50 351 5.0 9.0 0.00 0.61 0.00 83 1021.4
20180522000241 50 342 6.0 14.0 0.00 0.61 0.00 83 1021.3
20180521235740 50 342 6.0 14.0 0.00 0.61 0.00 83 1021.3
20180521235241 50 342 5.0 12.0 0.00 0.61 0.00 83 1021.3
20180521234741 50 346 5.0 12.0 0.00 0.61 0.00 83 1021.4
20180521234241 50 337 5.0 12.0 0.00 0.61 0.00 83 1021.4
20180521233740 50 339 3.0 12.0 0.00 0.61 0.00 83 1021.3
20180521233240 50 352 5.0 12.0 0.00 0.61 0.00 83 1021.2
20180521232741 51 348 6.0 13.0 0.00 0.61 0.00 83 1021.2
20180521232240 51 345 6.0 14.0 0.00 0.61 0.00 83 1021.1
20180521231741 51 342 5.0 12.0 0.00 0.61 0.00 83 1021.1
20180521231242 51 332 5.0 12.0 0.00 0.61 0.00 82 1021.0
20180521230759 51 357 6.0 14.0 0.00 0.61 0.00 82 1021.1
20180521230241 51 354 4.0 9.0 0.00 0.61 0.00 82 1021.1
20180521225741 51 341 5.0 14.0 0.00 0.61 0.03 82 1021.1
20180521225241 51 340 6.0 15.0 0.00 0.61 0.03 82 1021.2
20180521224741 51 354 5.0 13.0 0.00 0.61 0.03 82 1021.1
20180521224241 51 335 6.0 14.0 0.00 0.61 0.03 82 1021.0
20180521223741 51 349 7.0 14.0 0.00 0.61 0.03 82 1021.1
20180521223241 51 342 5.0 14.0 0.00 0.61 0.03 82 1021.1
20180521222741 51 339 7.0 14.0 0.00 0.61 0.03 82 1021.2
20180521222242 51 324 6.0 12.0 0.00 0.61 0.03 83 1021.2
20180521221741 52 333 6.0 12.0 0.00 0.61 0.03 83 1021.2
20180521221241 52 346 5.0 8.0 0.00 0.61 0.03 83 1021.1
20180521220741 52 337 5.0 13.0 0.00 0.61 0.03 83 1021.1
20180521220242 52 352 6.0 14.0 0.00 0.61 0.03 83 1021.1
20180521215741 52 341 6.0 12.0 0.00 0.61 0.03 82 1021.1
20180521215241 52 350 5.0 12.0 0.00 0.61 0.03 82 1021.2
20180521214741 52 353 5.0 9.0 0.00 0.61 0.03 82 1021.1
20180521214241 52 354 3.0 7.0 0.00 0.61 0.03 83 1021.1
20180521213742 52 331 3.0 13.0 0.00 0.61 0.03 83 1021.1
20180521213242 52 339 3.0 13.0 0.00 0.61 0.03 83 1021.2
20180521212742 52 342 4.0 14.0 0.00 0.61 0.03 83 1021.2
20180521212242 52 343 5.0 12.0 0.00 0.61 0.03 83 1021.3
20180521211742 52 358 4.0 12.0 0.00 0.61 0.03 83 1021.1
20180521211241 52 354 5.0 13.0 0.00 0.61 0.03 84 1021.1
20180521210741 52 5 5.0 13.0 0.00 0.61 0.03 84 1021.1
20180521210241 52 353 5.0 13.0 0.00 0.61 0.03 85 1021.0
20180521205742 53 9 7.0 14.0 0.00 0.61 0.03 85 1021.0
20180521205242 53 0 7.0 14.0 0.00 0.61 0.03 85 1020.9
20180521204742 53 12 6.0 14.0 0.00 0.61 0.03 85 1020.9
20180521204242 53 337 3.0 12.0 0.00 0.61 0.03 85 1020.8
20180521203742 53 343 7.0 15.0 0.00 0.61 0.03 85 1020.8
20180521203242 53 353 7.0 13.0 0.00 0.61 0.03 85 1020.7
20180521202742 54 338 5.0 13.0 0.00 0.61 0.03 85 1020.7
20180521202242 54 342 6.0 14.0 0.00 0.61 0.03 84 1020.6
20180521201742 54 336 7.0 14.0 0.00 0.61 0.03 84 1020.5
20180521201242 54 338 5.0 14.0 0.00 0.61 0.03 84 1020.5
20180521200742 54 336 8.0 15.0 0.00 0.61 0.03 84 1020.4
20180521200242 54 336 6.0 12.0 0.00 0.61 0.03 84 1020.3
20180521195744 54 351 6.0 12.0 0.00 0.61 0.03 85 1020.3
20180521195243 54 339 8.0 16.0 0.00 0.61 0.03 84 1020.1
20180521194743 55 341 7.0 15.0 0.00 0.61 0.03 84 1020.1
20180521194242 55 337 6.0 14.0 0.00 0.61 0.03 84 1019.9
20180521193743 55 345 7.0 15.0 0.00 0.61 0.03 84 1019.9
20180521193243 55 332 7.0 14.0 0.00 0.61 0.03 84 1019.9
20180521192743 55 344 6.0 16.0 0.00 0.61 0.03 84 1019.8
20180521192242 56 346 6.0 14.0 0.00 0.61 0.03 84 1019.7
20180521191743 56 331 8.0 14.0 0.00 0.61 0.03 83 1019.6
20180521191243 56 343 9.0 16.0 0.00 0.61 0.03 83 1019.5
20180521190743 56 347 7.0 14.0 0.00 0.61 0.03 83 1019.5
20180521190243 57 341 9.0 14.0 0.00 0.61 0.03 83 1019.4
20180521185742 57 334 9.0 18.0 0.00 0.61 0.03 83 1019.3
20180521185243 57 340 7.0 14.0 0.32 0.61 0.03 83 1019.3
20180521184742 58 337 8.0 16.0 0.37 0.61 0.03 82 1019.3
20180521184243 58 340 6.0 14.0 0.43 0.61 0.03 83 1019.3
20180521183743 58 342 7.0 16.0 0.00 0.61 0.03 82 1019.2
20180521183243 59 332 6.0 14.0 0.00 0.61 0.03 81 1019.2
20180521182742 59 346 7.0 13.0 0.00 0.61 0.03 80 1019.2
20180521182243 59 354 6.0 14.0 0.00 0.61 0.03 81 1019.2
20180521181743 59 344 6.0 13.0 0.00 0.61 0.03 80 1019.1
20180521181243 59 352 6.0 14.0 0.00 0.61 0.03 80 1019.2
20180521180743 60 339 5.0 12.0 0.00 0.61 0.03 80 1019.1
20180521180243 60 352 5.0 12.0 0.00 0.61 0.03 80 1019.1
20180521175743 60 341 6.0 13.0 0.00 0.61 0.03 80 1019.1
20180521175244 60 337 6.0 12.0 0.15 0.44 0.18 80 1019.2
20180521174743 59 341 7.0 15.0 0.00 0.24 0.03 81 1019.1
20180521174244 59 333 7.0 15.0 0.15 0.18 0.18 81 1019.2
20180521173743 59 335 10.0 15.0 0.00 0.03 0.03 81 1019.2
20180521173243 59 338 8.0 16.0 0.00 0.03 0.03 82 1019.2
20180521172744 59 329 9.0 14.0 0.00 0.03 0.03 82 1019.2
20180521172243 59 336 8.0 16.0 0.01 0.03 0.03 82 1019.1
20180521171744 59 338 8.0 14.0 0.01 0.03 0.03 82 1019.1
20180521171244 59 339 9.0 15.0 0.01 0.03 0.03 81 1019.0
20180521170744 59 334 7.0 13.0 0.01 0.03 0.03 82 1019.0
20180521170244 59 337 6.0 13.0 0.01 0.03 0.03 82 1019.0
20180521165744 59 332 6.0 14.0 0.01 0.03 0.03 82 1018.9
20180521165244 59 346 8.0 13.0 0.01 0.03 0.03 82 1018.9
20180521164743 59 332 7.0 16.0 0.01 0.03 0.03 82 1018.9
20180521164244 59 340 6.0 13.0 0.01 0.03 0.03 83 1018.9
20180521163744 59 338 7.0 14.0 0.01 0.03 0.03 83 1018.8
20180521163244 59 338 5.0 13.0 0.01 0.03 0.03 83 1018.9
20180521162744 59 341 5.0 12.0 0.01 0.03 0.03 83 1018.8
20180521162244 59 343 7.0 14.0 0.00 0.02 0.02 82 1018.7
20180521161744 60 333 8.0 15.0 0.00 0.02 0.02 82 1018.7
20180521161244 60 338 7.0 13.0 0.00 0.02 0.02 81 1018.7
20180521160744 60 342 5.0 9.0 0.00 0.02 0.02 82 1018.7
20180521160244 60 324 7.0 12.0 0.00 0.02 0.02 81 1018.7
20180521155744 60 331 7.0 14.0 0.00 0.02 0.02 82 1018.6
20180521155244 60 338 3.0 12.0 0.00 0.02 0.02 82 1018.6
20180521154744 60 339 7.0 12.0 0.00 0.02 0.02 81 1018.6
20180521154244 60 342 5.0 8.0 0.00 0.02 0.02 82 1018.7
20180521153744 60 327 4.0 12.0 0.00 0.02 0.02 82 1018.7
20180521153245 60 338 3.0 8.0 0.00 0.02 0.02 83 1018.7
20180521152745 60 340 5.0 12.0 0.00 0.02 0.02 83 1018.8
20180521152245 60 334 9.0 14.0 0.00 0.02 0.02 82 1018.8
20180521151745 60 342 6.0 14.0 0.00 0.02 0.02 82 1018.7
20180521151245 60 345 5.0 8.0 0.00 0.02 0.02 82 1018.8
20180521150745 61 341 5.0 12.0 0.00 0.02 0.02 81 1018.7
20180521150245 61 334 5.0 9.0 0.00 0.02 0.02 79 1018.7
20180521145748 61 336 7.0 12.0 0.00 0.02 0.02 77 1018.7
20180521145244 61 340 5.0 9.0 0.00 0.02 0.02 78 1018.7
20180521144745 61 336 7.0 13.0 0.00 0.02 0.02 78 1018.7
20180521144244 61 336 6.0 12.0 0.00 0.02 0.02 78 1018.6
20180521143745 61 340 5.0 10.0 0.00 0.02 0.02 79 1018.6
20180521143245 61 332 6.0 9.0 0.00 0.02 0.02 79 1018.6
20180521142745 61 334 8.0 12.0 0.00 0.02 0.02 78 1018.6
20180521142246 61 337 5.0 8.0 0.00 0.02 0.02 79 1018.5
20180521141745 61 329 6.0 12.0 0.00 0.02 0.02 79 1018.6
20180521141245 61 321 7.0 12.0 0.00 0.02 0.02 80 1018.6
20180521140745 61 327 7.0 12.0 0.00 0.02 0.02 79 1018.5